sensor_id;sensor_type;location;lat;lon;timestamp;P1;durP1;ratioP1;P2;durP2;ratioP2
20101;SDS011;10210;52.284;9.892;2023-06-22T00:00:49;11.20;;;5.20;;
20101;SDS011;10210;52.284;9.892;2023-06-22T00:03:16;10.43;;;4.70;;
20101;SDS011;10210;52.284;9.892;2023-06-22T00:05:44;11.17;;;5.43;;
20101;SDS011;10210;52.284;9.892;2023-06-22T00:08:11;12.87;;;5.73;;
20101;SDS011;10210;52.284;9.892;2023-06-22T00:10:37;12.90;;;5.93;;
20101;SDS011;10210;52.284;9.892;2023-06-22T00:13:03;11.93;;;5.63;;
20101;SDS011;10210;52.284;9.892;2023-06-22T00:15:32;12.40;;;5.83;;
20101;SDS011;10210;52.284;9.892;2023-06-22T00:17:57;12.07;;;5.97;;
20101;SDS011;10210;52.284;9.892;2023-06-22T00:20:24;13.30;;;5.80;;
20101;SDS011;10210;52.284;9.892;2023-06-22T00:22:52;11.70;;;5.63;;
20101;SDS011;10210;52.284;9.892;2023-06-22T00:25:23;12.63;;;5.60;;
20101;SDS011;10210;52.284;9.892;2023-06-22T00:27:49;11.00;;;5.37;;
20101;SDS011;10210;52.284;9.892;2023-06-22T00:30:15;11.77;;;5.70;;
20101;SDS011;10210;52.284;9.892;2023-06-22T00:32:42;11.67;;;5.40;;
20101;SDS011;10210;52.284;9.892;2023-06-22T00:35:10;11.83;;;5.87;;
20101;SDS011;10210;52.284;9.892;2023-06-22T00:37:37;12.00;;;5.90;;
20101;SDS011;10210;52.284;9.892;2023-06-22T00:40:07;14.27;;;6.47;;
20101;SDS011;10210;52.284;9.892;2023-06-22T00:42:37;12.00;;;6.10;;
20101;SDS011;10210;52.284;9.892;2023-06-22T00:45:04;12.37;;;6.40;;
20101;SDS011;10210;52.284;9.892;2023-06-22T00:47:31;11.77;;;5.80;;
20101;SDS011;10210;52.284;9.892;2023-06-22T00:49:58;12.20;;;6.00;;
20101;SDS011;10210;52.284;9.892;2023-06-22T00:52:25;12.57;;;6.07;;
20101;SDS011;10210;52.284;9.892;2023-06-22T00:54:54;12.43;;;5.77;;
20101;SDS011;10210;52.284;9.892;2023-06-22T00:57:22;12.97;;;6.10;;
20101;SDS011;10210;52.284;9.892;2023-06-22T00:59:53;13.50;;;6.33;;
20101;SDS011;10210;52.284;9.892;2023-06-22T01:02:19;12.10;;;6.33;;
20101;SDS011;10210;52.284;9.892;2023-06-22T01:04:45;11.73;;;5.67;;
20101;SDS011;10210;52.284;9.892;2023-06-22T01:12:53;12.07;;;5.63;;
20101;SDS011;10210;52.284;9.892;2023-06-22T01:15:37;14.17;;;6.17;;
20101;SDS011;10210;52.284;9.892;2023-06-22T01:18:11;13.87;;;6.20;;
20101;SDS011;10210;52.284;9.892;2023-06-22T01:20:39;14.23;;;6.70;;
20101;SDS011;10210;52.284;9.892;2023-06-22T01:26:18;13.57;;;7.03;;
20101;SDS011;10210;52.284;9.892;2023-06-22T01:28:57;12.60;;;6.73;;
20101;SDS011;10210;52.284;9.892;2023-06-22T01:31:25;13.17;;;6.47;;
20101;SDS011;10210;52.284;9.892;2023-06-22T01:33:55;15.20;;;7.20;;
20101;SDS011;10210;52.284;9.892;2023-06-22T01:36:25;14.10;;;6.83;;
20101;SDS011;10210;52.284;9.892;2023-06-22T01:38:53;13.40;;;7.10;;
20101;SDS011;10210;52.284;9.892;2023-06-22T01:41:21;14.23;;;6.60;;
20101;SDS011;10210;52.284;9.892;2023-06-22T01:43:50;13.40;;;7.23;;
20101;SDS011;10210;52.284;9.892;2023-06-22T01:46:18;12.77;;;7.00;;
20101;SDS011;10210;52.284;9.892;2023-06-22T01:48:46;14.07;;;7.07;;
20101;SDS011;10210;52.284;9.892;2023-06-22T01:51:12;14.43;;;6.80;;
20101;SDS011;10210;52.284;9.892;2023-06-22T01:53:39;13.07;;;6.33;;
20101;SDS011;10210;52.284;9.892;2023-06-22T01:56:05;14.07;;;7.50;;
20101;SDS011;10210;52.284;9.892;2023-06-22T01:58:31;14.33;;;7.00;;
20101;SDS011;10210;52.284;9.892;2023-06-22T02:01:11;14.33;;;7.20;;
20101;SDS011;10210;52.284;9.892;2023-06-22T02:03:46;15.73;;;7.63;;
20101;SDS011;10210;52.284;9.892;2023-06-22T02:06:29;13.40;;;7.40;;
20101;SDS011;10210;52.284;9.892;2023-06-22T02:09:02;14.00;;;7.60;;
20101;SDS011;10210;52.284;9.892;2023-06-22T02:11:37;14.37;;;8.20;;
20101;SDS011;10210;52.284;9.892;2023-06-22T02:14:06;13.80;;;8.00;;
20101;SDS011;10210;52.284;9.892;2023-06-22T02:16:33;13.93;;;7.70;;
20101;SDS011;10210;52.284;9.892;2023-06-22T02:19:00;15.00;;;7.63;;
20101;SDS011;10210;52.284;9.892;2023-06-22T02:21:31;19.23;;;8.40;;
20101;SDS011;10210;52.284;9.892;2023-06-22T02:23:57;13.63;;;7.97;;
20101;SDS011;10210;52.284;9.892;2023-06-22T02:26:24;15.30;;;8.43;;
20101;SDS011;10210;52.284;9.892;2023-06-22T02:28:51;16.87;;;9.30;;
20101;SDS011;10210;52.284;9.892;2023-06-22T02:31:17;15.47;;;7.70;;
20101;SDS011;10210;52.284;9.892;2023-06-22T02:33:44;12.80;;;7.27;;
20101;SDS011;10210;52.284;9.892;2023-06-22T02:36:10;16.00;;;8.30;;
20101;SDS011;10210;52.284;9.892;2023-06-22T02:38:38;13.63;;;7.67;;
20101;SDS011;10210;52.284;9.892;2023-06-22T02:41:13;13.30;;;7.40;;
20101;SDS011;10210;52.284;9.892;2023-06-22T02:43:44;16.50;;;8.03;;
20101;SDS011;10210;52.284;9.892;2023-06-22T02:46:10;13.80;;;7.90;;
20101;SDS011;10210;52.284;9.892;2023-06-22T02:48:38;14.00;;;8.03;;
20101;SDS011;10210;52.284;9.892;2023-06-22T02:51:05;17.27;;;8.30;;
20101;SDS011;10210;52.284;9.892;2023-06-22T02:53:31;15.23;;;8.87;;
20101;SDS011;10210;52.284;9.892;2023-06-22T02:55:57;14.17;;;8.17;;
20101;SDS011;10210;52.284;9.892;2023-06-22T02:58:23;14.87;;;8.43;;
20101;SDS011;10210;52.284;9.892;2023-06-22T03:00:49;15.87;;;8.73;;
20101;SDS011;10210;52.284;9.892;2023-06-22T03:03:18;15.93;;;8.63;;
20101;SDS011;10210;52.284;9.892;2023-06-22T03:05:44;14.93;;;8.70;;
20101;SDS011;10210;52.284;9.892;2023-06-22T03:08:10;16.57;;;8.93;;
20101;SDS011;10210;52.284;9.892;2023-06-22T03:10:35;16.03;;;8.50;;
20101;SDS011;10210;52.284;9.892;2023-06-22T03:13:01;16.53;;;8.67;;
20101;SDS011;10210;52.284;9.892;2023-06-22T03:15:27;16.10;;;9.17;;
20101;SDS011;10210;52.284;9.892;2023-06-22T03:17:54;14.90;;;8.73;;
20101;SDS011;10210;52.284;9.892;2023-06-22T03:20:20;15.20;;;8.90;;
20101;SDS011;10210;52.284;9.892;2023-06-22T03:22:46;16.37;;;8.47;;
20101;SDS011;10210;52.284;9.892;2023-06-22T03:25:13;15.80;;;8.57;;
20101;SDS011;10210;52.284;9.892;2023-06-22T03:27:40;15.63;;;9.20;;
20101;SDS011;10210;52.284;9.892;2023-06-22T03:30:09;15.80;;;8.97;;
20101;SDS011;10210;52.284;9.892;2023-06-22T03:32:36;16.63;;;8.03;;
20101;SDS011;10210;52.284;9.892;2023-06-22T03:35:02;16.43;;;8.63;;
20101;SDS011;10210;52.284;9.892;2023-06-22T03:37:28;17.10;;;8.60;;
20101;SDS011;10210;52.284;9.892;2023-06-22T03:39:54;15.97;;;9.13;;
20101;SDS011;10210;52.284;9.892;2023-06-22T03:42:20;16.87;;;9.00;;
20101;SDS011;10210;52.284;9.892;2023-06-22T03:44:46;15.80;;;9.03;;
20101;SDS011;10210;52.284;9.892;2023-06-22T03:47:12;15.77;;;9.53;;
20101;SDS011;10210;52.284;9.892;2023-06-22T03:49:38;14.23;;;8.63;;
20101;SDS011;10210;52.284;9.892;2023-06-22T03:52:03;16.53;;;9.60;;
20101;SDS011;10210;52.284;9.892;2023-06-22T03:54:30;15.80;;;8.90;;
20101;SDS011;10210;52.284;9.892;2023-06-22T03:56:56;16.63;;;8.93;;
20101;SDS011;10210;52.284;9.892;2023-06-22T03:59:23;15.57;;;8.43;;
20101;SDS011;10210;52.284;9.892;2023-06-22T04:01:49;16.00;;;8.73;;
20101;SDS011;10210;52.284;9.892;2023-06-22T04:04:15;14.77;;;8.23;;
20101;SDS011;10210;52.284;9.892;2023-06-22T04:06:44;15.37;;;9.23;;
20101;SDS011;10210;52.284;9.892;2023-06-22T04:09:09;16.00;;;8.90;;
20101;SDS011;10210;52.284;9.892;2023-06-22T04:11:35;14.67;;;8.43;;
20101;SDS011;10210;52.284;9.892;2023-06-22T04:14:01;15.57;;;8.63;;
20101;SDS011;10210;52.284;9.892;2023-06-22T04:16:27;15.40;;;9.10;;
20101;SDS011;10210;52.284;9.892;2023-06-22T04:18:52;16.70;;;9.77;;
20101;SDS011;10210;52.284;9.892;2023-06-22T04:21:19;17.10;;;9.23;;
20101;SDS011;10210;52.284;9.892;2023-06-22T04:23:44;15.60;;;8.83;;
20101;SDS011;10210;52.284;9.892;2023-06-22T04:26:11;16.20;;;9.60;;
20101;SDS011;10210;52.284;9.892;2023-06-22T04:28:39;14.83;;;8.90;;
20101;SDS011;10210;52.284;9.892;2023-06-22T04:31:05;14.57;;;8.77;;
20101;SDS011;10210;52.284;9.892;2023-06-22T04:33:31;14.77;;;8.40;;
20101;SDS011;10210;52.284;9.892;2023-06-22T04:35:57;16.30;;;8.47;;
20101;SDS011;10210;52.284;9.892;2023-06-22T04:38:23;16.63;;;7.97;;
20101;SDS011;10210;52.284;9.892;2023-06-22T04:40:50;15.10;;;8.53;;
20101;SDS011;10210;52.284;9.892;2023-06-22T04:43:16;15.67;;;8.20;;
20101;SDS011;10210;52.284;9.892;2023-06-22T04:45:41;15.97;;;8.57;;
20101;SDS011;10210;52.284;9.892;2023-06-22T04:48:07;16.23;;;8.70;;
20101;SDS011;10210;52.284;9.892;2023-06-22T04:50:34;15.47;;;8.70;;
20101;SDS011;10210;52.284;9.892;2023-06-22T04:53:12;15.40;;;9.10;;
20101;SDS011;10210;52.284;9.892;2023-06-22T04:55:39;16.37;;;8.73;;
20101;SDS011;10210;52.284;9.892;2023-06-22T04:58:07;15.47;;;8.80;;
20101;SDS011;10210;52.284;9.892;2023-06-22T05:00:32;14.13;;;8.10;;
20101;SDS011;10210;52.284;9.892;2023-06-22T05:03:01;14.63;;;8.13;;
20101;SDS011;10210;52.284;9.892;2023-06-22T05:05:37;16.10;;;7.50;;
20101;SDS011;10210;52.284;9.892;2023-06-22T05:08:03;15.33;;;8.73;;
20101;SDS011;10210;52.284;9.892;2023-06-22T05:10:32;13.33;;;7.40;;
20101;SDS011;10210;52.284;9.892;2023-06-22T05:12:58;14.70;;;8.03;;
20101;SDS011;10210;52.284;9.892;2023-06-22T05:15:30;15.17;;;8.10;;
20101;SDS011;10210;52.284;9.892;2023-06-22T05:18:01;14.63;;;7.93;;
20101;SDS011;10210;52.284;9.892;2023-06-22T05:20:30;14.60;;;8.40;;
20101;SDS011;10210;52.284;9.892;2023-06-22T05:22:55;14.47;;;7.83;;
20101;SDS011;10210;52.284;9.892;2023-06-22T05:25:21;15.73;;;7.87;;
20101;SDS011;10210;52.284;9.892;2023-06-22T05:27:54;13.33;;;7.30;;
20101;SDS011;10210;52.284;9.892;2023-06-22T05:30:23;15.00;;;7.60;;
20101;SDS011;10210;52.284;9.892;2023-06-22T05:32:48;14.20;;;7.33;;
20101;SDS011;10210;52.284;9.892;2023-06-22T05:35:14;15.37;;;7.73;;
20101;SDS011;10210;52.284;9.892;2023-06-22T05:37:39;15.90;;;8.00;;
20101;SDS011;10210;52.284;9.892;2023-06-22T05:40:05;15.53;;;8.47;;
20101;SDS011;10210;52.284;9.892;2023-06-22T05:42:32;16.97;;;7.90;;
20101;SDS011;10210;52.284;9.892;2023-06-22T05:44:58;15.47;;;8.67;;
20101;SDS011;10210;52.284;9.892;2023-06-22T05:47:23;15.47;;;8.23;;
20101;SDS011;10210;52.284;9.892;2023-06-22T05:49:49;15.30;;;8.27;;
20101;SDS011;10210;52.284;9.892;2023-06-22T05:52:15;17.67;;;7.67;;
20101;SDS011;10210;52.284;9.892;2023-06-22T05:54:40;14.27;;;7.77;;
20101;SDS011;10210;52.284;9.892;2023-06-22T05:57:15;13.23;;;7.03;;
20101;SDS011;10210;52.284;9.892;2023-06-22T05:59:41;12.90;;;7.03;;
20101;SDS011;10210;52.284;9.892;2023-06-22T06:02:07;13.63;;;7.00;;
20101;SDS011;10210;52.284;9.892;2023-06-22T06:04:33;15.77;;;7.97;;
20101;SDS011;10210;52.284;9.892;2023-06-22T06:06:59;13.70;;;7.17;;
20101;SDS011;10210;52.284;9.892;2023-06-22T06:09:26;13.37;;;7.23;;
20101;SDS011;10210;52.284;9.892;2023-06-22T06:11:54;13.90;;;7.03;;
20101;SDS011;10210;52.284;9.892;2023-06-22T06:14:20;12.93;;;7.07;;
20101;SDS011;10210;52.284;9.892;2023-06-22T06:16:46;13.23;;;6.63;;
20101;SDS011;10210;52.284;9.892;2023-06-22T06:19:12;15.73;;;7.47;;
20101;SDS011;10210;52.284;9.892;2023-06-22T06:21:38;13.63;;;7.17;;
20101;SDS011;10210;52.284;9.892;2023-06-22T06:24:04;13.97;;;6.70;;
20101;SDS011;10210;52.284;9.892;2023-06-22T06:26:32;15.93;;;7.17;;
20101;SDS011;10210;52.284;9.892;2023-06-22T06:29:00;14.07;;;7.10;;
20101;SDS011;10210;52.284;9.892;2023-06-22T06:31:27;14.17;;;7.60;;
20101;SDS011;10210;52.284;9.892;2023-06-22T06:33:53;14.77;;;6.90;;
20101;SDS011;10210;52.284;9.892;2023-06-22T06:36:20;12.93;;;6.53;;
20101;SDS011;10210;52.284;9.892;2023-06-22T06:38:46;14.30;;;6.80;;
20101;SDS011;10210;52.284;9.892;2023-06-22T06:41:20;13.90;;;7.00;;
20101;SDS011;10210;52.284;9.892;2023-06-22T06:43:46;13.53;;;6.77;;
20101;SDS011;10210;52.284;9.892;2023-06-22T06:46:12;13.43;;;6.37;;
20101;SDS011;10210;52.284;9.892;2023-06-22T06:48:37;13.23;;;6.97;;
20101;SDS011;10210;52.284;9.892;2023-06-22T06:51:03;13.27;;;6.80;;
20101;SDS011;10210;52.284;9.892;2023-06-22T06:53:29;12.93;;;6.13;;
20101;SDS011;10210;52.284;9.892;2023-06-22T06:56:02;13.07;;;6.70;;
20101;SDS011;10210;52.284;9.892;2023-06-22T06:58:30;14.10;;;6.30;;
20101;SDS011;10210;52.284;9.892;2023-06-22T07:00:56;13.80;;;6.40;;
20101;SDS011;10210;52.284;9.892;2023-06-22T07:03:21;12.80;;;6.07;;
20101;SDS011;10210;52.284;9.892;2023-06-22T07:05:47;13.97;;;6.53;;
20101;SDS011;10210;52.284;9.892;2023-06-22T07:08:31;13.00;;;6.10;;
20101;SDS011;10210;52.284;9.892;2023-06-22T07:10:57;13.10;;;6.17;;
20101;SDS011;10210;52.284;9.892;2023-06-22T07:13:23;11.90;;;5.63;;
20101;SDS011;10210;52.284;9.892;2023-06-22T07:15:48;12.10;;;5.87;;
20101;SDS011;10210;52.284;9.892;2023-06-22T07:18:22;11.40;;;5.30;;
20101;SDS011;10210;52.284;9.892;2023-06-22T07:20:48;12.23;;;5.77;;
20101;SDS011;10210;52.284;9.892;2023-06-22T07:23:14;12.00;;;5.60;;
20101;SDS011;10210;52.284;9.892;2023-06-22T07:25:39;13.03;;;6.60;;
20101;SDS011;10210;52.284;9.892;2023-06-22T07:28:07;11.70;;;5.33;;
20101;SDS011;10210;52.284;9.892;2023-06-22T07:30:33;13.00;;;5.00;;
20101;SDS011;10210;52.284;9.892;2023-06-22T07:33:11;12.00;;;5.63;;
20101;SDS011;10210;52.284;9.892;2023-06-22T07:35:36;12.80;;;5.90;;
20101;SDS011;10210;52.284;9.892;2023-06-22T07:38:02;12.63;;;5.50;;
20101;SDS011;10210;52.284;9.892;2023-06-22T07:40:28;11.67;;;5.20;;
20101;SDS011;10210;52.284;9.892;2023-06-22T07:42:54;12.73;;;5.47;;
20101;SDS011;10210;52.284;9.892;2023-06-22T07:45:20;12.30;;;5.97;;
20101;SDS011;10210;52.284;9.892;2023-06-22T07:47:49;11.83;;;5.73;;
20101;SDS011;10210;52.284;9.892;2023-06-22T07:50:15;13.53;;;6.07;;
20101;SDS011;10210;52.284;9.892;2023-06-22T07:52:41;13.10;;;5.83;;
20101;SDS011;10210;52.284;9.892;2023-06-22T07:55:07;12.90;;;5.67;;
20101;SDS011;10210;52.284;9.892;2023-06-22T07:57:33;13.33;;;6.13;;
20101;SDS011;10210;52.284;9.892;2023-06-22T07:59:59;13.93;;;6.90;;
20101;SDS011;10210;52.284;9.892;2023-06-22T08:02:40;12.73;;;6.20;;
20101;SDS011;10210;52.284;9.892;2023-06-22T08:05:08;12.40;;;6.10;;
20101;SDS011;10210;52.284;9.892;2023-06-22T08:07:35;14.13;;;5.87;;
20101;SDS011;10210;52.284;9.892;2023-06-22T08:10:10;13.37;;;6.03;;
20101;SDS011;10210;52.284;9.892;2023-06-22T08:12:36;13.17;;;5.87;;
20101;SDS011;10210;52.284;9.892;2023-06-22T08:15:02;14.17;;;6.37;;
20101;SDS011;10210;52.284;9.892;2023-06-22T08:17:29;12.13;;;5.70;;
20101;SDS011;10210;52.284;9.892;2023-06-22T08:19:56;14.50;;;7.13;;
20101;SDS011;10210;52.284;9.892;2023-06-22T08:22:21;14.00;;;7.07;;
20101;SDS011;10210;52.284;9.892;2023-06-22T08:24:50;14.20;;;6.70;;
20101;SDS011;10210;52.284;9.892;2023-06-22T08:27:16;13.23;;;5.80;;
20101;SDS011;10210;52.284;9.892;2023-06-22T08:29:43;15.57;;;6.97;;
20101;SDS011;10210;52.284;9.892;2023-06-22T08:32:10;12.80;;;6.70;;
20101;SDS011;10210;52.284;9.892;2023-06-22T08:34:37;13.33;;;7.03;;
20101;SDS011;10210;52.284;9.892;2023-06-22T08:37:07;12.47;;;6.07;;
20101;SDS011;10210;52.284;9.892;2023-06-22T08:39:36;13.20;;;6.97;;
20101;SDS011;10210;52.284;9.892;2023-06-22T08:42:02;12.07;;;6.10;;
20101;SDS011;10210;52.284;9.892;2023-06-22T08:44:28;14.13;;;6.37;;
20101;SDS011;10210;52.284;9.892;2023-06-22T08:46:53;12.60;;;6.33;;
20101;SDS011;10210;52.284;9.892;2023-06-22T08:49:19;13.00;;;6.93;;
20101;SDS011;10210;52.284;9.892;2023-06-22T08:51:45;13.77;;;6.80;;
20101;SDS011;10210;52.284;9.892;2023-06-22T08:54:18;13.43;;;6.63;;
20101;SDS011;10210;52.284;9.892;2023-06-22T08:56:44;13.70;;;6.70;;
20101;SDS011;10210;52.284;9.892;2023-06-22T08:59:10;13.40;;;6.57;;
20101;SDS011;10210;52.284;9.892;2023-06-22T09:01:35;13.37;;;6.90;;
20101;SDS011;10210;52.284;9.892;2023-06-22T09:04:01;12.83;;;6.27;;
20101;SDS011;10210;52.284;9.892;2023-06-22T09:06:30;13.83;;;6.63;;
20101;SDS011;10210;52.284;9.892;2023-06-22T09:08:57;13.30;;;6.77;;
20101;SDS011;10210;52.284;9.892;2023-06-22T09:11:24;15.37;;;7.53;;
20101;SDS011;10210;52.284;9.892;2023-06-22T09:13:50;13.27;;;7.13;;
20101;SDS011;10210;52.284;9.892;2023-06-22T09:16:17;14.67;;;7.03;;
20101;SDS011;10210;52.284;9.892;2023-06-22T09:18:48;14.07;;;7.10;;
20101;SDS011;10210;52.284;9.892;2023-06-22T09:21:16;13.13;;;6.83;;
20101;SDS011;10210;52.284;9.892;2023-06-22T09:23:42;15.67;;;8.10;;
20101;SDS011;10210;52.284;9.892;2023-06-22T09:26:09;13.77;;;7.67;;
20101;SDS011;10210;52.284;9.892;2023-06-22T09:28:35;14.47;;;7.57;;
20101;SDS011;10210;52.284;9.892;2023-06-22T09:31:01;14.93;;;8.00;;
20101;SDS011;10210;52.284;9.892;2023-06-22T09:33:26;14.80;;;8.73;;
20101;SDS011;10210;52.284;9.892;2023-06-22T09:35:55;14.57;;;8.03;;
20101;SDS011;10210;52.284;9.892;2023-06-22T09:38:21;15.53;;;8.37;;
20101;SDS011;10210;52.284;9.892;2023-06-22T09:40:47;15.27;;;9.00;;
20101;SDS011;10210;52.284;9.892;2023-06-22T09:43:12;14.73;;;8.03;;
20101;SDS011;10210;52.284;9.892;2023-06-22T09:45:38;14.53;;;8.20;;
20101;SDS011;10210;52.284;9.892;2023-06-22T09:48:04;15.53;;;8.67;;
20101;SDS011;10210;52.284;9.892;2023-06-22T09:50:35;16.60;;;10.07;;
20101;SDS011;10210;52.284;9.892;2023-06-22T09:53:02;16.63;;;9.30;;
20101;SDS011;10210;52.284;9.892;2023-06-22T09:55:28;14.13;;;8.20;;
20101;SDS011;10210;52.284;9.892;2023-06-22T09:57:53;14.40;;;8.47;;
20101;SDS011;10210;52.284;9.892;2023-06-22T10:00:20;15.53;;;8.20;;
20101;SDS011;10210;52.284;9.892;2023-06-22T10:02:47;15.57;;;9.03;;
20101;SDS011;10210;52.284;9.892;2023-06-22T10:05:13;15.70;;;9.13;;
20101;SDS011;10210;52.284;9.892;2023-06-22T10:07:39;13.80;;;7.90;;
20101;SDS011;10210;52.284;9.892;2023-06-22T10:10:07;14.73;;;8.15;;
20101;SDS011;10210;52.284;9.892;2023-06-22T10:12:34;14.82;;;9.40;;
20101;SDS011;10210;52.284;9.892;2023-06-22T10:15:00;15.85;;;9.82;;
20101;SDS011;10210;52.284;9.892;2023-06-22T10:17:52;15.18;;;9.05;;
20101;SDS011;10210;52.284;9.892;2023-06-22T10:20:18;16.13;;;9.40;;
20101;SDS011;10210;52.284;9.892;2023-06-22T10:22:45;15.55;;;9.30;;
20101;SDS011;10210;52.284;9.892;2023-06-22T10:25:11;15.07;;;9.03;;
20101;SDS011;10210;52.284;9.892;2023-06-22T10:27:46;16.30;;;9.60;;
20101;SDS011;10210;52.284;9.892;2023-06-22T10:30:12;16.43;;;9.80;;
20101;SDS011;10210;52.284;9.892;2023-06-22T10:32:39;15.90;;;9.13;;
20101;SDS011;10210;52.284;9.892;2023-06-22T10:35:10;15.50;;;9.93;;
20101;SDS011;10210;52.284;9.892;2023-06-22T10:37:38;15.70;;;10.10;;
20101;SDS011;10210;52.284;9.892;2023-06-22T10:40:14;15.70;;;9.50;;
20101;SDS011;10210;52.284;9.892;2023-06-22T10:42:42;15.77;;;10.27;;
20101;SDS011;10210;52.284;9.892;2023-06-22T10:45:08;16.93;;;10.27;;
20101;SDS011;10210;52.284;9.892;2023-06-22T10:47:34;15.70;;;10.00;;
20101;SDS011;10210;52.284;9.892;2023-06-22T10:50:02;16.87;;;9.33;;
20101;SDS011;10210;52.284;9.892;2023-06-22T10:52:28;15.77;;;9.40;;
20101;SDS011;10210;52.284;9.892;2023-06-22T10:54:54;15.23;;;8.93;;
20101;SDS011;10210;52.284;9.892;2023-06-22T10:57:21;15.57;;;9.70;;
20101;SDS011;10210;52.284;9.892;2023-06-22T10:59:47;14.27;;;8.67;;
20101;SDS011;10210;52.284;9.892;2023-06-22T11:02:13;15.67;;;9.63;;
20101;SDS011;10210;52.284;9.892;2023-06-22T11:04:47;14.83;;;9.10;;
20101;SDS011;10210;52.284;9.892;2023-06-22T11:07:13;14.40;;;8.90;;
20101;SDS011;10210;52.284;9.892;2023-06-22T11:09:45;16.20;;;9.20;;
20101;SDS011;10210;52.284;9.892;2023-06-22T11:12:10;17.13;;;9.20;;
20101;SDS011;10210;52.284;9.892;2023-06-22T11:14:36;15.10;;;9.40;;
20101;SDS011;10210;52.284;9.892;2023-06-22T11:17:04;16.67;;;9.87;;
20101;SDS011;10210;52.284;9.892;2023-06-22T11:19:33;15.77;;;9.87;;
20101;SDS011;10210;52.284;9.892;2023-06-22T11:21:59;15.13;;;9.75;;
20101;SDS011;10210;52.284;9.892;2023-06-22T11:24:24;15.45;;;9.27;;
20101;SDS011;10210;52.284;9.892;2023-06-22T11:26:50;16.20;;;9.10;;
20101;SDS011;10210;52.284;9.892;2023-06-22T11:29:15;15.93;;;9.45;;
20101;SDS011;10210;52.284;9.892;2023-06-22T11:31:47;15.43;;;8.70;;
20101;SDS011;10210;52.284;9.892;2023-06-22T11:34:13;16.33;;;9.30;;
20101;SDS011;10210;52.284;9.892;2023-06-22T11:36:38;15.27;;;8.98;;
20101;SDS011;10210;52.284;9.892;2023-06-22T11:39:05;15.38;;;8.60;;
20101;SDS011;10210;52.284;9.892;2023-06-22T11:41:34;13.82;;;8.65;;
20101;SDS011;10210;52.284;9.892;2023-06-22T11:44:00;14.77;;;8.63;;
20101;SDS011;10210;52.284;9.892;2023-06-22T11:46:26;14.35;;;8.48;;
20101;SDS011;10210;52.284;9.892;2023-06-22T11:48:51;15.18;;;7.97;;
20101;SDS011;10210;52.284;9.892;2023-06-22T11:51:17;13.70;;;7.63;;
20101;SDS011;10210;52.284;9.892;2023-06-22T11:53:42;13.60;;;8.18;;
20101;SDS011;10210;52.284;9.892;2023-06-22T11:56:08;13.77;;;8.10;;
20101;SDS011;10210;52.284;9.892;2023-06-22T11:58:34;13.75;;;7.90;;
20101;SDS011;10210;52.284;9.892;2023-06-22T12:01:01;13.65;;;7.50;;
20101;SDS011;10210;52.284;9.892;2023-06-22T12:03:30;14.27;;;7.30;;
20101;SDS011;10210;52.284;9.892;2023-06-22T12:05:55;12.70;;;7.15;;
20101;SDS011;10210;52.284;9.892;2023-06-22T12:08:21;15.05;;;7.90;;
20101;SDS011;10210;52.284;9.892;2023-06-22T12:10:48;12.70;;;7.15;;
20101;SDS011;10210;52.284;9.892;2023-06-22T12:13:15;13.43;;;7.78;;
20101;SDS011;10210;52.284;9.892;2023-06-22T12:15:42;13.35;;;7.82;;
20101;SDS011;10210;52.284;9.892;2023-06-22T12:18:07;11.90;;;6.32;;
20101;SDS011;10210;52.284;9.892;2023-06-22T12:20:34;12.25;;;6.50;;
20101;SDS011;10210;52.284;9.892;2023-06-22T12:22:59;11.73;;;6.47;;
20101;SDS011;10210;52.284;9.892;2023-06-22T12:25:26;12.30;;;6.35;;
20101;SDS011;10210;52.284;9.892;2023-06-22T12:27:51;12.88;;;6.28;;
20101;SDS011;10210;52.284;9.892;2023-06-22T12:30:18;11.93;;;5.95;;
20101;SDS011;10210;52.284;9.892;2023-06-22T12:32:44;12.25;;;6.50;;
20101;SDS011;10210;52.284;9.892;2023-06-22T12:35:10;12.88;;;6.72;;
20101;SDS011;10210;52.284;9.892;2023-06-22T12:37:39;13.48;;;7.60;;
20101;SDS011;10210;52.284;9.892;2023-06-22T12:40:07;12.82;;;7.00;;
20101;SDS011;10210;52.284;9.892;2023-06-22T12:42:40;13.25;;;6.53;;
20101;SDS011;10210;52.284;9.892;2023-06-22T12:45:11;13.38;;;6.65;;
20101;SDS011;10210;52.284;9.892;2023-06-22T12:47:37;12.82;;;6.88;;
20101;SDS011;10210;52.284;9.892;2023-06-22T12:50:03;12.05;;;6.20;;
20101;SDS011;10210;52.284;9.892;2023-06-22T12:52:32;12.57;;;5.85;;
20101;SDS011;10210;52.284;9.892;2023-06-22T12:55:07;12.20;;;6.40;;
20101;SDS011;10210;52.284;9.892;2023-06-22T12:57:33;11.07;;;5.63;;
20101;SDS011;10210;52.284;9.892;2023-06-22T12:59:59;11.95;;;6.20;;
20101;SDS011;10210;52.284;9.892;2023-06-22T13:02:25;12.32;;;6.50;;
20101;SDS011;10210;52.284;9.892;2023-06-22T13:04:51;12.15;;;5.82;;
20101;SDS011;10210;52.284;9.892;2023-06-22T13:07:17;11.85;;;6.03;;
20101;SDS011;10210;52.284;9.892;2023-06-22T13:09:48;12.00;;;6.50;;
20101;SDS011;10210;52.284;9.892;2023-06-22T13:12:16;12.60;;;6.05;;
20101;SDS011;10210;52.284;9.892;2023-06-22T13:14:42;12.10;;;6.28;;
20101;SDS011;10210;52.284;9.892;2023-06-22T13:17:08;12.70;;;6.47;;
20101;SDS011;10210;52.284;9.892;2023-06-22T13:19:34;12.23;;;6.13;;
20101;SDS011;10210;52.284;9.892;2023-06-22T13:22:00;11.98;;;6.20;;
20101;SDS011;10210;52.284;9.892;2023-06-22T13:24:29;13.55;;;6.45;;
20101;SDS011;10210;52.284;9.892;2023-06-22T13:26:54;11.90;;;6.38;;
20101;SDS011;10210;52.284;9.892;2023-06-22T13:29:20;11.30;;;5.82;;
20101;SDS011;10210;52.284;9.892;2023-06-22T13:31:46;13.38;;;6.60;;
20101;SDS011;10210;52.284;9.892;2023-06-22T13:34:11;12.52;;;6.47;;
20101;SDS011;10210;52.284;9.892;2023-06-22T13:36:37;13.40;;;6.80;;
20101;SDS011;10210;52.284;9.892;2023-06-22T13:39:03;12.57;;;7.03;;
20101;SDS011;10210;52.284;9.892;2023-06-22T13:41:29;11.48;;;5.95;;
20101;SDS011;10210;52.284;9.892;2023-06-22T13:43:54;11.88;;;6.10;;
20101;SDS011;10210;52.284;9.892;2023-06-22T13:46:20;13.05;;;6.32;;
20101;SDS011;10210;52.284;9.892;2023-06-22T13:48:46;12.70;;;6.55;;
20101;SDS011;10210;52.284;9.892;2023-06-22T13:51:11;12.07;;;6.10;;
20101;SDS011;10210;52.284;9.892;2023-06-22T13:53:46;11.65;;;5.80;;
20101;SDS011;10210;52.284;9.892;2023-06-22T13:56:11;12.13;;;6.22;;
20101;SDS011;10210;52.284;9.892;2023-06-22T13:58:37;12.25;;;6.40;;
20101;SDS011;10210;52.284;9.892;2023-06-22T14:01:03;11.63;;;5.47;;
20101;SDS011;10210;52.284;9.892;2023-06-22T14:03:28;12.00;;;5.80;;
20101;SDS011;10210;52.284;9.892;2023-06-22T14:05:54;12.05;;;5.90;;
20101;SDS011;10210;52.284;9.892;2023-06-22T14:08:21;11.38;;;5.82;;
20101;SDS011;10210;52.284;9.892;2023-06-22T14:10:49;13.23;;;6.68;;
20101;SDS011;10210;52.284;9.892;2023-06-22T14:13:15;13.13;;;7.50;;
20101;SDS011;10210;52.284;9.892;2023-06-22T14:15:40;13.70;;;7.80;;
20101;SDS011;10210;52.284;9.892;2023-06-22T14:18:08;14.87;;;7.93;;
20101;SDS011;10210;52.284;9.892;2023-06-22T14:20:33;14.30;;;8.20;;
20101;SDS011;10210;52.284;9.892;2023-06-22T14:22:59;13.97;;;8.17;;
20101;SDS011;10210;52.284;9.892;2023-06-22T14:25:25;15.17;;;8.63;;
20101;SDS011;10210;52.284;9.892;2023-06-22T14:27:50;14.70;;;8.23;;
20101;SDS011;10210;52.284;9.892;2023-06-22T14:30:16;13.87;;;8.17;;
20101;SDS011;10210;52.284;9.892;2023-06-22T14:32:43;15.97;;;8.47;;
20101;SDS011;10210;52.284;9.892;2023-06-22T14:35:09;14.00;;;8.13;;
20101;SDS011;10210;52.284;9.892;2023-06-22T14:37:35;14.63;;;8.80;;
20101;SDS011;10210;52.284;9.892;2023-06-22T14:40:00;16.07;;;9.00;;
20101;SDS011;10210;52.284;9.892;2023-06-22T14:42:26;14.83;;;8.53;;